Darstellungsparameter: Aktuell verwendete Einstellungen:
Skalierung der Graphiken ... ?
xyx+y,   Skalierungsfaktor:      Skalierung: Modus: x, Faktor: 1
Darstellungszeitraum ... ?
Vom - - bis: - -   Zeitraum: 20.02.2022 - 20.02.2022
Min/Max/Avg-Anzeige ... ?
Zeige MMA aktuell
Zeige MMA Monat
Zeige MMA alles
Zeige --A aktuell
Zeige --A Monat
Zeige --A alles
Keine MMA-Anzeige
MMA:
Keine MMA-Graphiken
MMA-Basis: 20.02.2022 - 20.02.2022
Quicknavigation für Darstellung... ?
Tage:      1T, 2T, 3T, 5T -1T -2T -3T -5T +1T +2T +3T +5T
Wochen: 1W, 2W, 3W -1W -2W -3W +1W +2W +3W
Monate: 1M, 3M, 6M -1M -3M -6M +1M +3M +6M
Jahre:    1J, 3J, 5J, 10J -1J -3J -5J -10J +1J +3J +5J +10J
Nutze für die Darstellung ... ?
Originaldaten oder Mittelwerte auf ...
Stundenbasis Tagesbasis Wochenbasis
Monatsbasis Jahresbasis      Datenbasis: Original-Daten
Darstellen als:
Statistik (Auto) Statistik J:M      Darstellung:
Zur Graphik,    zurück zur Übersicht aller Sensoren.
 
Tabellarische Datenbersicht: ?
 
Sensor: Nr:Datum:Temp:Abs-Feuchte:Windchill:Wind:
Aussen-T/F 1 20-02-2022 00:00:00 6.4 C 6.04 g/m*3 2.1 C 27.4 km/h
2 20-02-2022 00:05:00 6.4 C 6.04 g/m*3 1.83 C 30.6 km/h
3 20-02-2022 00:10:00 6.5 C 6.07 g/m*3 2.53 C 24.1 km/h
4 20-02-2022 00:15:00 6.5 C 6.07 g/m*3 2.38 C 25.7 km/h
5 20-02-2022 00:20:00 6.6 C 6.11 g/m*3 3.17 C 19.3 km/h
6 20-02-2022 00:25:00 6.6 C 6.11 g/m*3 2.66 C 24.1 km/h
7 20-02-2022 00:30:00 6.6 C 6.11 g/m*3 2.82 C 22.5 km/h
8 20-02-2022 00:35:00 6.6 C 6.11 g/m*3 3.17 C 19.3 km/h
9 20-02-2022 00:40:00 6.6 C 6.11 g/m*3 2.99 C 20.9 km/h
10 20-02-2022 00:45:00 6.6 C 6.11 g/m*3 2.99 C 20.9 km/h
11 20-02-2022 00:50:00 6.6 C 6.19 g/m*3 2.36 C 27.4 km/h
12 20-02-2022 00:55:00 6.6 C 6.19 g/m*3 3.36 C 17.7 km/h
13 20-02-2022 01:00:00 6.6 C 6.19 g/m*3 2.51 C 25.7 km/h
14 20-02-2022 01:05:00 6.7 C 6.23 g/m*3 2.64 C 25.7 km/h
15 20-02-2022 01:10:00 6.7 C 6.23 g/m*3 3.11 C 20.9 km/h
16 20-02-2022 01:15:00 6.7 C 6.23 g/m*3 3.48 C 17.7 km/h
17 20-02-2022 01:20:00 6.8 C 6.27 g/m*3 3.24 C 20.9 km/h
18 20-02-2022 01:25:00 6.8 C 6.27 g/m*3 3.07 C 22.5 km/h
19 20-02-2022 01:30:00 6.8 C 6.27 g/m*3 3.61 C 17.7 km/h
20 20-02-2022 01:35:00 6.9 C 6.31 g/m*3 3.54 C 19.3 km/h
21 20-02-2022 01:40:00 6.9 C 6.31 g/m*3 3.54 C 19.3 km/h
22 20-02-2022 01:45:00 6.9 C 6.39 g/m*3 3.73 C 17.7 km/h
23 20-02-2022 01:50:00 6.9 C 6.39 g/m*3 3.94 C 16.1 km/h
24 20-02-2022 01:55:00 7 C 6.35 g/m*3 3.49 C 20.9 km/h
25 20-02-2022 02:00:00 7.1 C 6.4 g/m*3 3 C 27.4 km/h
Sensor: Nr:Datum:Temp:Abs-Feuchte:Windchill:Wind:
Aussen-T/F 26 20-02-2022 02:05:00 7.2 C 6.44 g/m*3 3.92 C 19.3 km/h
27 20-02-2022 02:10:00 7.3 C 6.48 g/m*3 4.05 C 19.3 km/h
28 20-02-2022 02:15:00 7.3 C 6.48 g/m*3 4.23 C 17.7 km/h
29 20-02-2022 02:20:00 7.3 C 6.56 g/m*3 4.23 C 17.7 km/h
30 20-02-2022 02:25:00 7.2 C 6.59 g/m*3 3.75 C 20.9 km/h
31 20-02-2022 02:30:00 7.1 C 6.63 g/m*3 4.65 C 12.9 km/h
32 20-02-2022 02:35:00 7.1 C 6.63 g/m*3 4.41 C 14.5 km/h
33 20-02-2022 02:40:00 7 C 6.59 g/m*3 3.86 C 17.7 km/h
34 20-02-2022 02:45:00 7 C 6.59 g/m*3 4.06 C 16.1 km/h
35 20-02-2022 02:50:00 7 C 6.59 g/m*3 3.49 C 20.9 km/h
36 20-02-2022 02:55:00 7.1 C 6.63 g/m*3 3.8 C 19.3 km/h
37 20-02-2022 03:00:00 7.1 C 6.63 g/m*3 4.19 C 16.1 km/h
38 20-02-2022 03:05:00 7.1 C 6.63 g/m*3 3 C 27.4 km/h
39 20-02-2022 03:10:00 7.1 C 6.63 g/m*3 3.15 C 25.7 km/h
40 20-02-2022 03:15:00 7.1 C 6.55 g/m*3 3.62 C 20.9 km/h
41 20-02-2022 03:20:00 7.1 C 6.55 g/m*3 3.8 C 19.3 km/h
42 20-02-2022 03:25:00 7.1 C 6.63 g/m*3 3.98 C 17.7 km/h
43 20-02-2022 03:30:00 7 C 6.59 g/m*3 3.17 C 24.1 km/h
44 20-02-2022 03:35:00 7.1 C 6.63 g/m*3 3.62 C 20.9 km/h
45 20-02-2022 03:40:00 7 C 6.59 g/m*3 3.49 C 20.9 km/h
46 20-02-2022 03:45:00 6.9 C 6.54 g/m*3 3.73 C 17.7 km/h
47 20-02-2022 03:50:00 6.9 C 6.62 g/m*3 4.41 C 12.9 km/h
48 20-02-2022 03:55:00 6.8 C 6.58 g/m*3 3.42 C 19.3 km/h
49 20-02-2022 04:00:00 6.8 C 6.58 g/m*3 3.24 C 20.9 km/h
50 20-02-2022 04:05:00 6.8 C 6.58 g/m*3 3.82 C 16.1 km/h
Sensor: Nr:Datum:Temp:Abs-Feuchte:Windchill:Wind:
Aussen-T/F 51 20-02-2022 04:10:00 6.8 C 6.5 g/m*3 3.82 C 16.1 km/h
52 20-02-2022 04:15:00 6.9 C 6.54 g/m*3 2.89 C 25.7 km/h
53 20-02-2022 04:20:00 7.1 C 6.63 g/m*3 3.45 C 22.5 km/h
54 20-02-2022 04:25:00 7.2 C 6.67 g/m*3 3.43 C 24.1 km/h
55 20-02-2022 04:30:00 7.3 C 6.64 g/m*3 3.01 C 30.6 km/h
56 20-02-2022 04:35:00 7.4 C 6.76 g/m*3 3.26 C 29 km/h
57 20-02-2022 04:40:00 7.3 C 6.79 g/m*3 3.87 C 20.9 km/h
58 20-02-2022 04:45:00 7.2 C 6.75 g/m*3 4.11 C 17.7 km/h
59 20-02-2022 04:50:00 7 C 6.66 g/m*3 3.49 C 20.9 km/h
60 20-02-2022 04:55:00 6.8 C 6.58 g/m*3 4.87 C 9.7 km/h
61 20-02-2022 05:00:00 6.7 C 6.61 g/m*3 3.92 C 14.5 km/h
62 20-02-2022 05:05:00 6.7 C 6.61 g/m*3 3.69 C 16.1 km/h
63 20-02-2022 05:10:00 6.7 C 6.61 g/m*3 4.44 C 11.3 km/h
64 20-02-2022 05:15:00 6.6 C 6.57 g/m*3 4.99 C 8.1 km/h
65 20-02-2022 05:20:00 6.5 C 6.52 g/m*3 4.2 C 11.3 km/h
66 20-02-2022 05:25:00 6.5 C 6.52 g/m*3 4.51 C 9.7 km/h
67 20-02-2022 05:30:00 6.4 C 6.48 g/m*3 4.08 C 11.3 km/h
68 20-02-2022 05:35:00 6.4 C 6.48 g/m*3 4.39 C 9.7 km/h
69 20-02-2022 05:40:00 6.4 C 6.48 g/m*3 4.08 C 11.3 km/h
70 20-02-2022 05:45:00 6.4 C 6.48 g/m*3 3.55 C 14.5 km/h
71 20-02-2022 05:50:00 6.6 C 6.57 g/m*3 3.79 C 14.5 km/h
72 20-02-2022 05:55:00 6.7 C 6.53 g/m*3 3.29 C 19.3 km/h
73 20-02-2022 06:00:00 6.7 C 6.53 g/m*3 3.92 C 14.5 km/h
74 20-02-2022 06:05:00 6.7 C 6.53 g/m*3 4.17 C 12.9 km/h
75 20-02-2022 06:10:00 6.7 C 6.53 g/m*3 3.92 C 14.5 km/h
Sensor: Nr:Datum:Temp:Abs-Feuchte:Windchill:Wind:
Aussen-T/F 76 20-02-2022 06:15:00 6.7 C 6.46 g/m*3 3.69 C 16.1 km/h
77 20-02-2022 06:20:00 6.8 C 6.5 g/m*3 4.29 C 12.9 km/h
78 20-02-2022 06:25:00 6.9 C 6.54 g/m*3 3.94 C 16.1 km/h
79 20-02-2022 06:30:00 7 C 6.59 g/m*3 4.06 C 16.1 km/h
80 20-02-2022 06:35:00 7.1 C 6.63 g/m*3 4.65 C 12.9 km/h
81 20-02-2022 06:40:00 7.1 C 6.63 g/m*3 6.02 C 6.4 km/h
82 20-02-2022 06:45:00 7 C 6.59 g/m*3 4.06 C 16.1 km/h
83 20-02-2022 06:50:00 7 C 6.66 g/m*3 4.8 C 11.3 km/h
84 20-02-2022 06:55:00 7.1 C 6.71 g/m*3 4.19 C 16.1 km/h
85 20-02-2022 07:00:00 7.2 C 6.75 g/m*3 4.53 C 14.5 km/h
86 20-02-2022 07:05:00 7.3 C 6.79 g/m*3 4.66 C 14.5 km/h
87 20-02-2022 07:10:00 7.3 C 6.79 g/m*3 4.9 C 12.9 km/h
88 20-02-2022 07:15:00 7.4 C 6.76 g/m*3 5.28 C 11.3 km/h
89 20-02-2022 07:20:00 7.5 C 6.8 g/m*3 5.41 C 11.3 km/h
90 20-02-2022 07:25:00 7.6 C 6.85 g/m*3 5.53 C 11.3 km/h
91 20-02-2022 07:30:00 7.6 C 6.85 g/m*3 6.16 C 8.1 km/h
92 20-02-2022 07:35:00 7.7 C 6.89 g/m*3 5.38 C 12.9 km/h
93 20-02-2022 07:40:00 7.8 C 6.94 g/m*3 5.51 C 12.9 km/h
94 20-02-2022 07:45:00 7.8 C 6.94 g/m*3 4.86 C 17.7 km/h
95 20-02-2022 07:50:00 7.9 C 6.98 g/m*3 5.39 C 14.5 km/h
96 20-02-2022 07:55:00 7.9 C 6.98 g/m*3 5.89 C 11.3 km/h
97 20-02-2022 08:00:00 8 C 7.03 g/m*3 5.75 C 12.9 km/h
98 20-02-2022 08:05:00 8 C 7.03 g/m*3 6.3 C 9.7 km/h
99 20-02-2022 08:10:00 8.1 C 7.07 g/m*3 5.43 C 16.1 km/h
100 20-02-2022 08:15:00 8.2 C 7.12 g/m*3 5.76 C 14.5 km/h
Sensor: Nr:Datum:Temp:Abs-Feuchte:Windchill:Wind:
Aussen-T/F 101 20-02-2022 08:20:00 8.2 C 7.12 g/m*3 5.76 C 14.5 km/h
102 20-02-2022 08:25:00 8.2 C 7.12 g/m*3 6.54 C 9.7 km/h
103 20-02-2022 08:30:00 8.2 C 7.12 g/m*3 6.25 C 11.3 km/h
104 20-02-2022 08:35:00 8.3 C 7.16 g/m*3 6.37 C 11.3 km/h
105 20-02-2022 08:40:00 8.3 C 7.16 g/m*3 5.68 C 16.1 km/h
106 20-02-2022 08:45:00 8.4 C 7.21 g/m*3 5.8 C 16.1 km/h
107 20-02-2022 08:50:00 8.4 C 7.21 g/m*3 5.8 C 16.1 km/h
108 20-02-2022 08:55:00 8.5 C 7.26 g/m*3 5.39 C 20.9 km/h
109 20-02-2022 09:00:00 8.6 C 7.3 g/m*3 5.68 C 19.3 km/h
110 20-02-2022 09:05:00 8.7 C 7.26 g/m*3 5.65 C 20.9 km/h
111 20-02-2022 09:10:00 8.7 C 7.26 g/m*3 5.65 C 20.9 km/h
112 20-02-2022 09:15:00 8.8 C 7.31 g/m*3 5.77 C 20.9 km/h
113 20-02-2022 09:20:00 8.8 C 7.31 g/m*3 6.5 C 14.5 km/h
114 20-02-2022 09:25:00 8.8 C 7.31 g/m*3 6.11 C 17.7 km/h
115 20-02-2022 09:30:00 8.8 C 7.31 g/m*3 6.11 C 17.7 km/h
116 20-02-2022 09:35:00 8.9 C 7.36 g/m*3 5.1 C 30.6 km/h
117 20-02-2022 09:40:00 8.9 C 7.36 g/m*3 5.47 C 25.7 km/h
118 20-02-2022 09:45:00 8.9 C 7.36 g/m*3 5.6 C 24.1 km/h
119 20-02-2022 09:50:00 8.9 C 7.45 g/m*3 5.6 C 24.1 km/h
120 20-02-2022 09:55:00 8.9 C 7.36 g/m*3 5.33 C 27.4 km/h
121 20-02-2022 10:00:00 9 C 7.49 g/m*3 6.36 C 17.7 km/h
122 20-02-2022 10:05:00 9.1 C 7.54 g/m*3 5.86 C 24.1 km/h
123 20-02-2022 10:10:00 9.1 C 7.54 g/m*3 5.59 C 27.4 km/h
124 20-02-2022 10:15:00 9.1 C 7.54 g/m*3 5.73 C 25.7 km/h
125 20-02-2022 10:20:00 9.1 C 7.54 g/m*3 5.86 C 24.1 km/h
Sensor: Nr:Datum:Temp:Abs-Feuchte:Windchill:Wind:
Aussen-T/F 126 20-02-2022 10:25:00 9.1 C 7.54 g/m*3 5.73 C 25.7 km/h
127 20-02-2022 10:30:00 9.1 C 7.54 g/m*3 6 C 22.5 km/h
128 20-02-2022 10:35:00 9.2 C 7.59 g/m*3 5.72 C 27.4 km/h
129 20-02-2022 10:40:00 9.2 C 7.59 g/m*3 5.6 C 29 km/h
130 20-02-2022 10:45:00 9.2 C 7.59 g/m*3 5.38 C 32.2 km/h
131 20-02-2022 10:50:00 9.3 C 7.64 g/m*3 5.73 C 29 km/h
132 20-02-2022 10:55:00 9.3 C 7.64 g/m*3 5.98 C 25.7 km/h
133 20-02-2022 11:00:00 9.3 C 7.64 g/m*3 5.98 C 25.7 km/h
134 20-02-2022 11:05:00 9.4 C 7.6 g/m*3 6.25 C 24.1 km/h
135 20-02-2022 11:10:00 9.5 C 7.65 g/m*3 6.66 C 20.9 km/h
136 20-02-2022 11:15:00 9.6 C 7.69 g/m*3 6.37 C 25.7 km/h
137 20-02-2022 11:20:00 9.6 C 7.69 g/m*3 6.37 C 25.7 km/h
138 20-02-2022 11:25:00 9.6 C 7.69 g/m*3 6.79 C 20.9 km/h
139 20-02-2022 11:30:00 9.6 C 7.69 g/m*3 7.11 C 17.7 km/h
140 20-02-2022 11:35:00 9.6 C 7.69 g/m*3 6.5 C 24.1 km/h
141 20-02-2022 11:40:00 9.6 C 7.69 g/m*3 6.37 C 25.7 km/h
142 20-02-2022 11:45:00 9.6 C 7.69 g/m*3 7.11 C 17.7 km/h
143 20-02-2022 11:50:00 9.6 C 7.69 g/m*3 6.37 C 25.7 km/h
144 20-02-2022 11:55:00 9.6 C 7.79 g/m*3 6.5 C 24.1 km/h
145 20-02-2022 12:00:00 9.7 C 7.84 g/m*3 6.63 C 24.1 km/h
146 20-02-2022 12:05:00 9.7 C 7.84 g/m*3 6.91 C 20.9 km/h
147 20-02-2022 12:10:00 9.7 C 7.74 g/m*3 7.41 C 16.1 km/h
148 20-02-2022 12:15:00 9.7 C 7.74 g/m*3 6.37 C 27.4 km/h
149 20-02-2022 12:20:00 9.8 C 7.89 g/m*3 7.04 C 20.9 km/h
150 20-02-2022 12:25:00 9.8 C 7.89 g/m*3 6.63 C 25.7 km/h
Sensor: Nr:Datum:Temp:Abs-Feuchte:Windchill:Wind:
Aussen-T/F 151 20-02-2022 12:30:00 9.9 C 7.84 g/m*3 7.02 C 22.5 km/h
152 20-02-2022 12:35:00 10 C 7.89 g/m*3 7.29 C 20.9 km/h
153 20-02-2022 12:40:00 10 C 7.89 g/m*3 6.64 C 29 km/h
154 20-02-2022 12:45:00 10.1 C 7.94 g/m*3 6.77 C 29 km/h
155 20-02-2022 12:50:00 10.3 C 8.04 g/m*3 6.63 C 35.4 km/h
156 20-02-2022 12:55:00 10.5 C 8.05 g/m*3 6.89 C 35.4 km/h
157 20-02-2022 13:00:00 10.6 C 8.1 g/m*3 8.36 C 17.7 km/h
158 20-02-2022 13:05:00 10.6 C 8.1 g/m*3 7.22 C 32.2 km/h
159 20-02-2022 13:10:00 10.6 C 8 g/m*3 7.54 C 27.4 km/h
160 20-02-2022 13:15:00 10.7 C 8.15 g/m*3 7.79 C 25.7 km/h
161 20-02-2022 13:20:00 10.7 C 8.05 g/m*3 7.45 C 30.6 km/h
162 20-02-2022 13:25:00 10.7 C 8.15 g/m*3 7.25 C 33.8 km/h
163 20-02-2022 13:30:00 10.7 C 8.15 g/m*3 8.32 C 19.3 km/h
164 20-02-2022 13:35:00 10.7 C 8.15 g/m*3 7.79 C 25.7 km/h
165 20-02-2022 13:40:00 10.7 C 8.15 g/m*3 8.32 C 19.3 km/h
166 20-02-2022 13:45:00 10.6 C 8.2 g/m*3 8.2 C 19.3 km/h
167 20-02-2022 13:50:00 10.5 C 8.15 g/m*3 7.92 C 20.9 km/h
168 20-02-2022 13:55:00 10.4 C 8.19 g/m*3 7.95 C 19.3 km/h
169 20-02-2022 14:00:00 10.3 C 8.24 g/m*3 7.67 C 20.9 km/h
170 20-02-2022 14:05:00 10.2 C 8.28 g/m*3 7.4 C 22.5 km/h
171 20-02-2022 14:10:00 10 C 8.17 g/m*3 6.89 C 25.7 km/h
172 20-02-2022 14:15:00 9.9 C 8.12 g/m*3 6.89 C 24.1 km/h
173 20-02-2022 14:20:00 10 C 8.17 g/m*3 6.89 C 25.7 km/h
174 20-02-2022 14:25:00 10.1 C 8.13 g/m*3 8.1 C 14.5 km/h
175 20-02-2022 14:30:00 10.1 C 8.13 g/m*3 7.42 C 20.9 km/h
Sensor: Nr:Datum:Temp:Abs-Feuchte:Windchill:Wind:
Aussen-T/F 176 20-02-2022 14:35:00 10.2 C 8.18 g/m*3 7.4 C 22.5 km/h
177 20-02-2022 14:40:00 10.2 C 8.09 g/m*3 7.27 C 24.1 km/h
178 20-02-2022 14:45:00 10.3 C 8.14 g/m*3 7.82 C 19.3 km/h
179 20-02-2022 14:50:00 10.4 C 8.1 g/m*3 8.11 C 17.7 km/h
180 20-02-2022 14:55:00 10.4 C 8.1 g/m*3 8.47 C 14.5 km/h
181 20-02-2022 15:00:00 10.5 C 8.15 g/m*3 7.79 C 22.5 km/h
182 20-02-2022 15:05:00 10.5 C 8.15 g/m*3 8.23 C 17.7 km/h
183 20-02-2022 15:10:00 10.6 C 8.1 g/m*3 8.05 C 20.9 km/h
184 20-02-2022 15:15:00 10.6 C 8.1 g/m*3 8.05 C 20.9 km/h
185 20-02-2022 15:20:00 10.7 C 8.15 g/m*3 8.32 C 19.3 km/h
186 20-02-2022 15:25:00 10.7 C 8.05 g/m*3 7.79 C 25.7 km/h
187 20-02-2022 15:30:00 10.8 C 8.11 g/m*3 8.04 C 24.1 km/h
188 20-02-2022 15:35:00 10.8 C 8.11 g/m*3 8.3 C 20.9 km/h
189 20-02-2022 15:40:00 10.8 C 8.11 g/m*3 8.45 C 19.3 km/h
190 20-02-2022 15:45:00 10.8 C 8.11 g/m*3 8.3 C 20.9 km/h
191 20-02-2022 15:50:00 10.8 C 8.11 g/m*3 7.79 C 27.4 km/h
192 20-02-2022 15:55:00 10.9 C 8.16 g/m*3 7.61 C 32.2 km/h
193 20-02-2022 16:00:00 10.9 C 8.06 g/m*3 8.58 C 19.3 km/h
194 20-02-2022 16:05:00 10.9 C 8.06 g/m*3 7.33 C 37 km/h
195 20-02-2022 16:10:00 10.9 C 8.06 g/m*3 7.33 C 37 km/h
196 20-02-2022 16:15:00 10.9 C 8.06 g/m*3 7.92 C 27.4 km/h
197 20-02-2022 16:20:00 10.9 C 8.06 g/m*3 8.3 C 22.5 km/h
198 20-02-2022 16:25:00 10.9 C 8.06 g/m*3 7.51 C 33.8 km/h
199 20-02-2022 16:30:00 10.9 C 8.06 g/m*3 7.92 C 27.4 km/h
200 20-02-2022 16:35:00 10.9 C 8.06 g/m*3 7.81 C 29 km/h
Sensor: Nr:Datum:Temp:Abs-Feuchte:Windchill:Wind:
Aussen-T/F 201 20-02-2022 16:40:00 10.9 C 8.06 g/m*3 8.05 C 25.7 km/h
202 20-02-2022 16:45:00 10.8 C 8.11 g/m*3 7.58 C 30.6 km/h
203 20-02-2022 16:50:00 10.8 C 8.11 g/m*3 7.68 C 29 km/h
204 20-02-2022 16:55:00 10.7 C 8.15 g/m*3 7.79 C 25.7 km/h
205 20-02-2022 17:00:00 10.6 C 8.1 g/m*3 7.03 C 35.4 km/h
206 20-02-2022 17:05:00 10.6 C 8.1 g/m*3 7.66 C 25.7 km/h
207 20-02-2022 17:10:00 10.6 C 8.2 g/m*3 7.91 C 22.5 km/h
208 20-02-2022 17:15:00 10.5 C 8.15 g/m*3 7.79 C 22.5 km/h
209 20-02-2022 17:20:00 10.4 C 8.1 g/m*3 7.4 C 25.7 km/h
210 20-02-2022 17:25:00 10.4 C 8.1 g/m*3 7.66 C 22.5 km/h
211 20-02-2022 17:30:00 10.4 C 8.1 g/m*3 7.16 C 29 km/h
212 20-02-2022 17:35:00 10.4 C 8.1 g/m*3 7.53 C 24.1 km/h
213 20-02-2022 17:40:00 10.5 C 8.15 g/m*3 7.41 C 27.4 km/h
214 20-02-2022 17:45:00 10.5 C 8.15 g/m*3 7.65 C 24.1 km/h
215 20-02-2022 17:50:00 10.5 C 8.15 g/m*3 7.79 C 22.5 km/h
216 20-02-2022 17:55:00 10.5 C 8.15 g/m*3 7.29 C 29 km/h
217 20-02-2022 18:00:00 10.5 C 8.15 g/m*3 7.41 C 27.4 km/h
218 20-02-2022 18:05:00 10.5 C 8.15 g/m*3 8.23 C 17.7 km/h
219 20-02-2022 18:10:00 10.5 C 8.15 g/m*3 7.09 C 32.2 km/h
220 20-02-2022 18:15:00 10.5 C 8.15 g/m*3 7.41 C 27.4 km/h
221 20-02-2022 18:20:00 10.5 C 8.15 g/m*3 7.53 C 25.7 km/h
222 20-02-2022 18:25:00 10.4 C 8.19 g/m*3 7.53 C 24.1 km/h
223 20-02-2022 18:30:00 10.4 C 8.19 g/m*3 7.4 C 25.7 km/h
224 20-02-2022 18:35:00 10.4 C 8.19 g/m*3 7.4 C 25.7 km/h
225 20-02-2022 18:40:00 10.4 C 8.29 g/m*3 7.95 C 19.3 km/h
Sensor: Nr:Datum:Temp:Abs-Feuchte:Windchill:Wind:
Aussen-T/F 226 20-02-2022 18:45:00 10.3 C 8.24 g/m*3 7.27 C 25.7 km/h
227 20-02-2022 18:50:00 10.3 C 8.24 g/m*3 7.15 C 27.4 km/h
228 20-02-2022 18:55:00 10.2 C 8.28 g/m*3 7.14 C 25.7 km/h
229 20-02-2022 19:00:00 10.2 C 8.28 g/m*3 6.69 C 32.2 km/h
230 20-02-2022 19:05:00 10.3 C 8.33 g/m*3 6.93 C 30.6 km/h
231 20-02-2022 19:10:00 10.3 C 8.24 g/m*3 7.03 C 29 km/h
232 20-02-2022 19:15:00 10.3 C 8.24 g/m*3 7.27 C 25.7 km/h
233 20-02-2022 19:20:00 10.3 C 8.24 g/m*3 7.27 C 25.7 km/h
234 20-02-2022 19:25:00 10.3 C 8.24 g/m*3 7.27 C 25.7 km/h
235 20-02-2022 19:30:00 10.4 C 8.19 g/m*3 6.95 C 32.2 km/h
236 20-02-2022 19:35:00 10.6 C 8.3 g/m*3 7.22 C 32.2 km/h
237 20-02-2022 19:40:00 10.6 C 8.3 g/m*3 7.66 C 25.7 km/h
238 20-02-2022 19:45:00 10.7 C 8.25 g/m*3 7.16 C 35.4 km/h
239 20-02-2022 19:50:00 10.8 C 8.3 g/m*3 7.38 C 33.8 km/h
240 20-02-2022 19:55:00 10.8 C 8.2 g/m*3 7.48 C 32.2 km/h
241 20-02-2022 20:00:00 10.8 C 8.3 g/m*3 7.38 C 33.8 km/h
242 20-02-2022 20:05:00 10.8 C 8.3 g/m*3 7.29 C 35.4 km/h
243 20-02-2022 20:10:00 10.9 C 8.36 g/m*3 7.81 C 29 km/h
244 20-02-2022 20:15:00 10.8 C 8.2 g/m*3 7.38 C 33.8 km/h
245 20-02-2022 20:20:00 10.8 C 8.2 g/m*3 7.68 C 29 km/h
246 20-02-2022 20:25:00 10.9 C 8.36 g/m*3 8.05 C 25.7 km/h
247 20-02-2022 20:30:00 10.9 C 8.26 g/m*3 7.17 C 40.2 km/h
248 20-02-2022 20:35:00 10.9 C 8.26 g/m*3 8.05 C 25.7 km/h
249 20-02-2022 20:40:00 10.9 C 8.26 g/m*3 7.61 C 32.2 km/h
250 20-02-2022 20:45:00 10.9 C 8.26 g/m*3 7.81 C 29 km/h
Sensor: Nr:Datum:Temp:Abs-Feuchte:Windchill:Wind:
Aussen-T/F 251 20-02-2022 20:50:00 10.9 C 8.26 g/m*3 7.81 C 29 km/h
252 20-02-2022 20:55:00 10.9 C 8.26 g/m*3 7.61 C 32.2 km/h
253 20-02-2022 21:00:00 10.9 C 8.26 g/m*3 7.92 C 27.4 km/h
254 20-02-2022 21:05:00 10.9 C 8.36 g/m*3 7.81 C 29 km/h
255 20-02-2022 21:10:00 10.9 C 8.36 g/m*3 7.92 C 27.4 km/h
256 20-02-2022 21:15:00 10.8 C 8.4 g/m*3 8.17 C 22.5 km/h
257 20-02-2022 21:20:00 10.6 C 8.39 g/m*3 7.66 C 25.7 km/h
258 20-02-2022 21:25:00 10.5 C 8.44 g/m*3 7.29 C 29 km/h
259 20-02-2022 21:30:00 10.4 C 8.38 g/m*3 7.4 C 25.7 km/h
260 20-02-2022 21:35:00 10.4 C 8.38 g/m*3 7.53 C 24.1 km/h
261 20-02-2022 21:40:00 10.5 C 8.34 g/m*3 7.29 C 29 km/h
262 20-02-2022 21:45:00 10.6 C 8.3 g/m*3 8.05 C 20.9 km/h
263 20-02-2022 21:50:00 10.7 C 8.35 g/m*3 7.79 C 25.7 km/h
264 20-02-2022 21:55:00 10.8 C 8.3 g/m*3 7.38 C 33.8 km/h
265 20-02-2022 22:00:00 10.9 C 8.26 g/m*3 7.71 C 30.6 km/h
266 20-02-2022 22:05:00 11 C 8.31 g/m*3 7.74 C 32.2 km/h
267 20-02-2022 22:10:00 11.1 C 8.36 g/m*3 11.1 C 24.1 km/h
268 20-02-2022 22:15:00 11.1 C 8.36 g/m*3 11.1 C 32.2 km/h
269 20-02-2022 22:20:00 11.1 C 8.26 g/m*3 11.1 C 27.4 km/h
270 20-02-2022 22:25:00 11.1 C 8.26 g/m*3 11.1 C 32.2 km/h
271 20-02-2022 22:30:00 11.1 C 8.26 g/m*3 11.1 C 32.2 km/h
272 20-02-2022 22:35:00 11.2 C 8.31 g/m*3 11.2 C 29 km/h
273 20-02-2022 22:40:00 11.2 C 8.21 g/m*3 11.2 C 43.4 km/h
274 20-02-2022 22:45:00 11.2 C 8.21 g/m*3 11.2 C 43.4 km/h
275 20-02-2022 22:50:00 11.3 C 8.26 g/m*3 11.3 C 29 km/h
Sensor: Nr:Datum:Temp:Abs-Feuchte:Windchill:Wind:
Aussen-T/F 276 20-02-2022 22:55:00 11.3 C 8.26 g/m*3 11.3 C 30.6 km/h
277 20-02-2022 23:00:00 11.2 C 8.31 g/m*3 11.2 C 30.6 km/h
278 20-02-2022 23:05:00 11.1 C 8.26 g/m*3 11.1 C 24.1 km/h
279 20-02-2022 23:10:00 11 C 8.21 g/m*3 7.94 C 29 km/h
280 20-02-2022 23:15:00 11 C 8.21 g/m*3 7.65 C 33.8 km/h
281 20-02-2022 23:20:00 11 C 8.21 g/m*3 7.84 C 30.6 km/h
282 20-02-2022 23:25:00 11 C 8.21 g/m*3 8.17 C 25.7 km/h
283 20-02-2022 23:30:00 10.9 C 8.26 g/m*3 7.92 C 27.4 km/h
284 20-02-2022 23:35:00 10.9 C 8.26 g/m*3 7.01 C 43.4 km/h
285 20-02-2022 23:40:00 10.8 C 8.2 g/m*3 7.38 C 33.8 km/h
286 20-02-2022 23:45:00 10.8 C 8.2 g/m*3 7.68 C 29 km/h
287 20-02-2022 23:50:00 10.8 C 8.3 g/m*3 7.2 C 37 km/h
288 20-02-2022 23:55:00 10.7 C 8.25 g/m*3 7.55 C 29 km/h

Legende:
   Min
   Max


Maximal/Minimal-Werte vom 20.02.2022 - 20.02.2022

Sensor Min Max Avg
Temp
(Aussen-T/F)
6.4 °C
20-02-2022  00:00:00
11.3 °C
20-02-2022  22:50:00
9.11 °C
Abs-Feuchte
(Aussen-T/F)
6.04 g/m*3
20-02-2022  00:00:00
8.44 g/m*3
20-02-2022  21:25:00
7.47 g/m*3
Windchill
(Aussen-T/F)
1.83 C
20-02-2022  00:05:00
11.3 C
20-02-2022  22:50:00
6.2 C

Die Daten stammen von einer Davis Vantage Pro 2 Wetter-Station und werden unter Linux mit der Software wview2wettercgi und aufbereitet. Alle Angaben erfolgen ohne Gewähr für ihre Vollständigkeit oder Richtigkeit.
Kontakt: Rainer Krienke krienke@uni-koblenz.de . Meine Webseiten an der Uni Koblenz oder privat.
Version: $Revision: 0.78 $